UAE445 YPAD-YMML
Flight info
| Callsign | UAE445 |
|---|---|
| Flight time | N/A |
| Altitude | 39000 |
| Route | AD V255 BENDO Y12 ARBEY H119 ML |
| Aircraft | A343/H-SDE2E3FGHIJ4J5M1RWXY/LB1D1 |
Departure
| Time | 2026-05-08 04:19 |
|---|---|
| Airport | Adelaide International Airport (YPAD) |
Arrival
| Time | N/A |
|---|---|
| Airport | Melbourne Airport (YMML) |
| Time | Latitude | Longitude | Altitude | Speed | Heading |
|---|---|---|---|---|---|
| 2026-05-08 03:56 | -34.93937 | 138.53830 | 31 ft | 0 kts | 320° |
| 2026-05-08 03:57 | -34.93938 | 138.53830 | 31 ft | 0 kts | 320° |
| 2026-05-08 03:59 | -34.93938 | 138.53831 | 31 ft | 0 kts | 320° |
| 2026-05-08 04:12 | -34.93944 | 138.53837 | 31 ft | 4 kts | 319° |
| 2026-05-08 04:12 | -34.93964 | 138.53859 | 51 ft | 4 kts | 314° |
| 2026-05-08 04:13 | -34.93982 | 138.53884 | 29 ft | 4 kts | 302° |
| 2026-05-08 04:13 | -34.93992 | 138.53913 | 26 ft | 3 kts | 274° |
| 2026-05-08 04:13 | -34.93993 | 138.53917 | 28 ft | 2 kts | 271° |
| 2026-05-08 04:15 | -34.93993 | 138.53918 | 28 ft | 0 kts | 271° |
| 2026-05-08 04:16 | -34.93984 | 138.53912 | 25 ft | 5 kts | 332° |
| 2026-05-08 04:17 | -34.93922 | 138.53991 | 31 ft | 20 kts | 60° |
| 2026-05-08 04:17 | -34.93915 | 138.54147 | 31 ft | 18 kts | 122° |
| 2026-05-08 04:17 | -34.94013 | 138.54268 | 31 ft | 16 kts | 138° |
| 2026-05-08 04:17 | -34.94095 | 138.54273 | 32 ft | 11 kts | 216° |
| 2026-05-08 04:18 | -34.94102 | 138.54265 | 32 ft | 1 kts | 222° |
| 2026-05-08 04:18 | -34.94110 | 138.54253 | 33 ft | 3 kts | 231° |
| 2026-05-08 04:18 | -34.94175 | 138.54153 | 32 ft | 50 kts | 230° |
| 2026-05-08 04:18 | -34.94627 | 138.53500 | 67 ft | 144 kts | 229° |
| 2026-05-08 04:19 | -34.95387 | 138.52424 | 647 ft | 184 kts | 228° |
| 2026-05-08 04:19 | -34.96257 | 138.51129 | 1414 ft | 220 kts | 228° |
| 2026-05-08 04:19 | -34.97362 | 138.49581 | 2174 ft | 255 kts | 228° |
| 2026-05-08 04:19 | -34.98519 | 138.47900 | 3356 ft | 260 kts | 228° |
| 2026-05-08 04:20 | -34.99636 | 138.46250 | 4269 ft | 246 kts | 228° |
| 2026-05-08 04:20 | -35.00724 | 138.44653 | 4946 ft | 244 kts | 227° |
| 2026-05-08 04:20 | -35.01978 | 138.43241 | 5837 ft | 248 kts | 211° |
| 2026-05-08 04:20 | -35.03563 | 138.42464 | 7141 ft | 248 kts | 191° |
| 2026-05-08 04:21 | -35.05303 | 138.42493 | 8362 ft | 255 kts | 169° |
| 2026-05-08 04:21 | -35.06932 | 138.43401 | 9553 ft | 263 kts | 148° |
| 2026-05-08 04:21 | -35.08420 | 138.44776 | 10568 ft | 276 kts | 144° |
| 2026-05-08 04:21 | -35.09790 | 138.46560 | 11093 ft | 306 kts | 127° |
| 2026-05-08 04:22 | -35.10591 | 138.49059 | 11845 ft | 327 kts | 103° |
| 2026-05-08 04:22 | -35.10617 | 138.51889 | 12756 ft | 339 kts | 89° |
| 2026-05-08 04:22 | -35.10482 | 138.53836 | 13394 ft | 343 kts | 88° |
| 2026-05-08 04:22 | -35.10201 | 138.57708 | 14608 ft | 350 kts | 88° |
| 2026-05-08 04:23 | -35.10064 | 138.59679 | 15177 ft | 353 kts | 89° |
| 2026-05-08 04:23 | -35.09864 | 138.62676 | 16100 ft | 356 kts | 89° |
| 2026-05-08 04:23 | -35.09636 | 138.66126 | 17178 ft | 359 kts | 89° |
| 2026-05-08 04:23 | -35.09501 | 138.68195 | 17774 ft | 363 kts | 89° |
| 2026-05-08 04:24 | -35.09304 | 138.71240 | 18652 ft | 367 kts | 89° |
| 2026-05-08 04:24 | -35.09100 | 138.74403 | 19438 ft | 371 kts | 89° |
| 2026-05-08 04:24 | -35.08896 | 138.77566 | 20178 ft | 376 kts | 89° |
| 2026-05-08 04:24 | -35.08691 | 138.80722 | 20926 ft | 380 kts | 89° |
| 2026-05-08 04:25 | -35.08481 | 138.83954 | 21670 ft | 384 kts | 89° |
| 2026-05-08 04:25 | -35.08267 | 138.87227 | 22467 ft | 387 kts | 89° |
| 2026-05-08 04:25 | -35.08051 | 138.90530 | 23097 ft | 394 kts | 89° |
| 2026-05-08 04:25 | -35.07833 | 138.93871 | 23768 ft | 398 kts | 89° |
| 2026-05-08 04:26 | -35.07613 | 138.97251 | 24373 ft | 402 kts | 89° |
| 2026-05-08 04:26 | -35.07385 | 139.00669 | 24951 ft | 406 kts | 88° |
| 2026-05-08 04:26 | -35.07154 | 139.04117 | 25541 ft | 409 kts | 88° |
| 2026-05-08 04:26 | -35.06921 | 139.07591 | 26100 ft | 412 kts | 88° |